Terminal Aerodrome Forecast
Issued by NWS

Home | Current Version | Previous Version | Text Only | Print | Product List | Glossary Off
Versions: 1 2 3 4 5 6 7 8 9 10 11 12 13 14

000
FTUS43 KGRB 170520
TAFMTW
TAF
KMTW 170520Z 1706/1806 14006KT P6SM SCT015 BKN200
      TEMPO 1710/1714 BKN015
     FM171500 17008KT P6SM SCT250
     FM180300 22008KT 6SM BR SCT250=

USA.gov is the U.S. government's official web portal to all federal, state and local government web resources and services.